KAC738 OKKK-OLBA
Flight info
| Callsign | KAC738 |
|---|---|
| Flight time | 1h 59m |
| Altitude | 38000 |
| Route | RALKA G795 TASMI DCT GADSI M703 KASIR DCT MODIK DCT FIRAS R655 KTN/N0439F260 R655 LEBOR |
| Aircraft | B738/M-SDE2E3FGHIRWXY/LB1 |
Departure
| Time | 2026-05-05 08:22 |
|---|---|
| Airport | Kuwait International Airport (OKKK) |
Arrival
| Time | 2026-05-05 10:21 |
|---|---|
| Airport | Beirut Rafic Hariri International Airport (OLBA) |
| Time | Latitude | Longitude | Altitude | Speed | Heading |
|---|---|---|---|---|---|
| 2026-05-05 07:32 | 29.24189 | 47.96627 | 166 ft | 0 kts | 155° |
| 2026-05-05 08:07 | 29.24207 | 47.96617 | 166 ft | 4 kts | 155° |
| 2026-05-05 08:07 | 29.24233 | 47.96606 | 166 ft | 4 kts | 162° |
| 2026-05-05 08:08 | 29.24259 | 47.96599 | 166 ft | 4 kts | 178° |
| 2026-05-05 08:08 | 29.24282 | 47.96603 | 166 ft | 4 kts | 221° |
| 2026-05-05 08:08 | 29.24289 | 47.96611 | 166 ft | 1 kts | 245° |
| 2026-05-05 08:11 | 29.24284 | 47.96600 | 166 ft | 3 kts | 245° |
| 2026-05-05 08:11 | 29.24274 | 47.96575 | 166 ft | 3 kts | 245° |
| 2026-05-05 08:11 | 29.24264 | 47.96550 | 166 ft | 3 kts | 245° |
| 2026-05-05 08:11 | 29.24254 | 47.96526 | 166 ft | 3 kts | 245° |
| 2026-05-05 08:12 | 29.24245 | 47.96503 | 165 ft | 3 kts | 245° |
| 2026-05-05 08:12 | 29.24225 | 47.96456 | 165 ft | 8 kts | 245° |
| 2026-05-05 08:12 | 29.24202 | 47.96399 | 165 ft | 8 kts | 245° |
| 2026-05-05 08:12 | 29.24185 | 47.96358 | 163 ft | 0 kts | 238° |
| 2026-05-05 08:13 | 29.24180 | 47.96355 | 163 ft | 1 kts | 214° |
| 2026-05-05 08:13 | 29.24159 | 47.96350 | 163 ft | 5 kts | 179° |
| 2026-05-05 08:13 | 29.24109 | 47.96370 | 163 ft | 9 kts | 156° |
| 2026-05-05 08:13 | 29.24049 | 47.96403 | 163 ft | 10 kts | 154° |
| 2026-05-05 08:14 | 29.23989 | 47.96435 | 163 ft | 9 kts | 154° |
| 2026-05-05 08:14 | 29.23931 | 47.96467 | 163 ft | 9 kts | 154° |
| 2026-05-05 08:14 | 29.23874 | 47.96499 | 163 ft | 9 kts | 154° |
| 2026-05-05 08:14 | 29.23809 | 47.96533 | 163 ft | 11 kts | 156° |
| 2026-05-05 08:15 | 29.23726 | 47.96575 | 163 ft | 15 kts | 154° |
| 2026-05-05 08:15 | 29.23619 | 47.96632 | 163 ft | 20 kts | 155° |
| 2026-05-05 08:15 | 29.23476 | 47.96709 | 162 ft | 25 kts | 155° |
| 2026-05-05 08:15 | 29.23313 | 47.96796 | 163 ft | 27 kts | 155° |
| 2026-05-05 08:16 | 29.23151 | 47.96881 | 165 ft | 25 kts | 155° |
| 2026-05-05 08:16 | 29.22996 | 47.96963 | 167 ft | 24 kts | 155° |
| 2026-05-05 08:16 | 29.22853 | 47.97038 | 166 ft | 23 kts | 155° |
| 2026-05-05 08:16 | 29.22792 | 47.97071 | 166 ft | 11 kts | 155° |
| 2026-05-05 08:17 | 29.22679 | 47.97131 | 166 ft | 25 kts | 155° |
| 2026-05-05 08:17 | 29.22483 | 47.97235 | 166 ft | 34 kts | 155° |
| 2026-05-05 08:17 | 29.22271 | 47.97348 | 166 ft | 33 kts | 155° |
| 2026-05-05 08:17 | 29.22072 | 47.97455 | 165 ft | 30 kts | 155° |
| 2026-05-05 08:18 | 29.21884 | 47.97554 | 165 ft | 29 kts | 155° |
| 2026-05-05 08:18 | 29.21710 | 47.97646 | 166 ft | 27 kts | 154° |
| 2026-05-05 08:18 | 29.21546 | 47.97733 | 167 ft | 25 kts | 155° |
| 2026-05-05 08:18 | 29.21394 | 47.97815 | 169 ft | 23 kts | 155° |
| 2026-05-05 08:19 | 29.21281 | 47.97854 | 169 ft | 13 kts | 199° |
| 2026-05-05 08:19 | 29.21239 | 47.97772 | 169 ft | 13 kts | 268° |
| 2026-05-05 08:19 | 29.21265 | 47.97703 | 169 ft | 0 kts | 304° |
| 2026-05-05 08:20 | 29.21267 | 47.97699 | 169 ft | 4 kts | 304° |
| 2026-05-05 08:20 | 29.21309 | 47.97630 | 169 ft | 15 kts | 304° |
| 2026-05-05 08:20 | 29.21397 | 47.97563 | 168 ft | 16 kts | 335° |
| 2026-05-05 08:21 | 29.21493 | 47.97511 | 167 ft | 15 kts | 335° |
| 2026-05-05 08:21 | 29.21782 | 47.97355 | 166 ft | 90 kts | 335° |
| 2026-05-05 08:21 | 29.22607 | 47.96919 | 164 ft | 169 kts | 335° |
| 2026-05-05 08:21 | 29.23823 | 47.96298 | 634 ft | 203 kts | 337° |
| 2026-05-05 08:22 | 29.25134 | 47.95624 | 1765 ft | 203 kts | 334° |
| 2026-05-05 08:22 | 29.26462 | 47.94899 | 2589 ft | 224 kts | 334° |
| 2026-05-05 08:22 | 29.27785 | 47.94184 | 2787 ft | 245 kts | 334° |
| 2026-05-05 08:22 | 29.29282 | 47.93386 | 3196 ft | 257 kts | 334° |
| 2026-05-05 08:23 | 29.30985 | 47.92485 | 3580 ft | 277 kts | 334° |
| 2026-05-05 08:23 | 29.32750 | 47.91562 | 4256 ft | 285 kts | 337° |
| 2026-05-05 08:23 | 29.34693 | 47.91137 | 5043 ft | 289 kts | 5° |
| 2026-05-05 08:23 | 29.36597 | 47.91845 | 5848 ft | 290 kts | 37° |
| 2026-05-05 08:24 | 29.38001 | 47.93492 | 6689 ft | 288 kts | 59° |
| 2026-05-05 08:24 | 29.38981 | 47.95475 | 7466 ft | 290 kts | 65° |
| 2026-05-05 08:24 | 29.39919 | 47.97563 | 8200 ft | 296 kts | 65° |
| 2026-05-05 08:24 | 29.40867 | 47.99651 | 8943 ft | 300 kts | 64° |
| 2026-05-05 08:25 | 29.41855 | 48.01791 | 9685 ft | 304 kts | 63° |
| 2026-05-05 08:25 | 29.42931 | 48.03874 | 10329 ft | 312 kts | 51° |
| 2026-05-05 08:25 | 29.44698 | 48.05453 | 10522 ft | 335 kts | 21° |
| 2026-05-05 08:25 | 29.47043 | 48.05933 | 10701 ft | 352 kts | 354° |
| 2026-05-05 08:26 | 29.49488 | 48.05436 | 10886 ft | 370 kts | 345° |
| 2026-05-05 08:26 | 29.52076 | 48.04736 | 11032 ft | 388 kts | 344° |
| 2026-05-05 08:26 | 29.54744 | 48.03987 | 11252 ft | 401 kts | 344° |
| 2026-05-05 08:26 | 29.57459 | 48.03239 | 11718 ft | 406 kts | 344° |
| 2026-05-05 08:27 | 29.60235 | 48.02498 | 12397 ft | 405 kts | 344° |
| 2026-05-05 08:27 | 29.62967 | 48.01787 | 13014 ft | 407 kts | 344° |
| 2026-05-05 08:27 | 29.65741 | 48.01075 | 13542 ft | 411 kts | 344° |
| 2026-05-05 08:27 | 29.68564 | 48.00356 | 14059 ft | 414 kts | 344° |
| 2026-05-05 08:28 | 29.71362 | 47.99644 | 14573 ft | 417 kts | 344° |
| 2026-05-05 08:28 | 29.74224 | 47.98918 | 15064 ft | 421 kts | 344° |
| 2026-05-05 08:28 | 29.77103 | 47.98187 | 15560 ft | 423 kts | 344° |
| 2026-05-05 08:28 | 29.79960 | 47.97462 | 16069 ft | 426 kts | 343° |
| 2026-05-05 08:29 | 29.82874 | 47.96723 | 16565 ft | 428 kts | 343° |
| 2026-05-05 08:29 | 29.85781 | 47.95984 | 17017 ft | 431 kts | 343° |
| 2026-05-05 08:29 | 29.88734 | 47.95233 | 17480 ft | 433 kts | 343° |
| 2026-05-05 08:30 | 29.94634 | 47.93730 | 18353 ft | 438 kts | 343° |
| 2026-05-05 08:30 | 29.97642 | 47.92962 | 18733 ft | 442 kts | 343° |
| 2026-05-05 08:30 | 30.00536 | 47.91891 | 19096 ft | 439 kts | 331° |
| 2026-05-05 08:30 | 30.03153 | 47.90103 | 19509 ft | 434 kts | 319° |
| 2026-05-05 08:31 | 30.05364 | 47.87812 | 19884 ft | 431 kts | 308° |
| 2026-05-05 08:31 | 30.07339 | 47.85162 | 20240 ft | 433 kts | 306° |
| 2026-05-05 08:31 | 30.09295 | 47.82493 | 20582 ft | 436 kts | 306° |
| 2026-05-05 08:31 | 30.11248 | 47.79830 | 20934 ft | 439 kts | 306° |
| 2026-05-05 08:32 | 30.12569 | 47.78036 | 21153 ft | 440 kts | 306° |
| 2026-05-05 08:32 | 30.14572 | 47.75333 | 21501 ft | 442 kts | 307° |
| 2026-05-05 08:32 | 30.16565 | 47.72657 | 21818 ft | 445 kts | 307° |
| 2026-05-05 08:32 | 30.18597 | 47.69936 | 22139 ft | 447 kts | 307° |
| 2026-05-05 08:33 | 30.21312 | 47.66305 | 22551 ft | 450 kts | 307° |
| 2026-05-05 08:33 | 30.22679 | 47.64476 | 22745 ft | 451 kts | 307° |
| 2026-05-05 08:33 | 30.25401 | 47.60832 | 23122 ft | 454 kts | 307° |
| 2026-05-05 08:33 | 30.26787 | 47.58974 | 23310 ft | 455 kts | 306° |
| 2026-05-05 08:34 | 30.28874 | 47.56177 | 23586 ft | 458 kts | 306° |
| 2026-05-05 08:34 | 30.30935 | 47.53412 | 23863 ft | 459 kts | 306° |
| 2026-05-05 08:34 | 30.33044 | 47.50580 | 24119 ft | 461 kts | 306° |
| 2026-05-05 08:34 | 30.35116 | 47.47794 | 24359 ft | 463 kts | 306° |
| 2026-05-05 08:35 | 30.37242 | 47.44937 | 24627 ft | 464 kts | 306° |
| 2026-05-05 08:35 | 30.39341 | 47.42111 | 24923 ft | 464 kts | 306° |
| 2026-05-05 08:35 | 30.41457 | 47.39261 | 25178 ft | 465 kts | 306° |
| 2026-05-05 08:35 | 30.43560 | 47.36426 | 25433 ft | 466 kts | 306° |
| 2026-05-05 08:36 | 30.45682 | 47.33566 | 25693 ft | 466 kts | 306° |
| 2026-05-05 08:36 | 30.47784 | 47.30727 | 25892 ft | 468 kts | 306° |
| 2026-05-05 08:36 | 30.49918 | 47.27842 | 26142 ft | 468 kts | 306° |
| 2026-05-05 08:36 | 30.52016 | 47.25007 | 26396 ft | 468 kts | 305° |
| 2026-05-05 08:37 | 30.54137 | 47.22139 | 26731 ft | 465 kts | 305° |
| 2026-05-05 08:37 | 30.56104 | 47.19177 | 27089 ft | 458 kts | 298° |
| 2026-05-05 08:37 | 30.57657 | 47.16017 | 27453 ft | 450 kts | 290° |
| 2026-05-05 08:37 | 30.58840 | 47.12654 | 27805 ft | 446 kts | 287° |
| 2026-05-05 08:38 | 30.59975 | 47.09297 | 28125 ft | 445 kts | 287° |
| 2026-05-05 08:38 | 30.61094 | 47.05997 | 28498 ft | 443 kts | 287° |
| 2026-05-05 08:38 | 30.62227 | 47.02674 | 28872 ft | 440 kts | 287° |
| 2026-05-05 08:38 | 30.63360 | 46.99372 | 29268 ft | 438 kts | 287° |
| 2026-05-05 08:39 | 30.64477 | 46.96127 | 29635 ft | 435 kts | 287° |
| 2026-05-05 08:39 | 30.65607 | 46.92856 | 30033 ft | 432 kts | 287° |
| 2026-05-05 08:39 | 30.66732 | 46.89601 | 30389 ft | 431 kts | 287° |
| 2026-05-05 08:39 | 30.67836 | 46.86406 | 30717 ft | 430 kts | 287° |
| 2026-05-05 08:40 | 30.68948 | 46.83179 | 31048 ft | 428 kts | 286° |
| 2026-05-05 08:40 | 30.70057 | 46.79961 | 31400 ft | 426 kts | 286° |
| 2026-05-05 08:40 | 30.71147 | 46.76795 | 31771 ft | 424 kts | 286° |
| 2026-05-05 08:40 | 30.72246 | 46.73601 | 32118 ft | 422 kts | 286° |
| 2026-05-05 08:41 | 30.73323 | 46.70469 | 32421 ft | 420 kts | 285° |
| 2026-05-05 08:41 | 30.74409 | 46.67305 | 32779 ft | 418 kts | 285° |
| 2026-05-05 08:41 | 30.75483 | 46.64174 | 33101 ft | 416 kts | 285° |
| 2026-05-05 08:41 | 30.76541 | 46.61090 | 33425 ft | 414 kts | 285° |
| 2026-05-05 08:42 | 30.77608 | 46.57975 | 33704 ft | 413 kts | 284° |
| 2026-05-05 08:42 | 30.78675 | 46.54852 | 34017 ft | 411 kts | 284° |
| 2026-05-05 08:42 | 30.79717 | 46.51802 | 34339 ft | 409 kts | 284° |
| 2026-05-05 08:42 | 30.80767 | 46.48726 | 34596 ft | 409 kts | 284° |
| 2026-05-05 08:43 | 30.81820 | 46.45639 | 34787 ft | 409 kts | 284° |
| 2026-05-05 08:43 | 30.82859 | 46.42589 | 35023 ft | 409 kts | 284° |
| 2026-05-05 08:43 | 30.83910 | 46.39500 | 35297 ft | 407 kts | 284° |
| 2026-05-05 08:43 | 30.84954 | 46.36429 | 35507 ft | 407 kts | 284° |
| 2026-05-05 08:44 | 30.85995 | 46.33364 | 35746 ft | 406 kts | 284° |
| 2026-05-05 08:44 | 30.87024 | 46.30333 | 35990 ft | 405 kts | 283° |
| 2026-05-05 08:44 | 30.88060 | 46.27280 | 36189 ft | 405 kts | 283° |
| 2026-05-05 08:44 | 30.89089 | 46.24244 | 36334 ft | 406 kts | 283° |
| 2026-05-05 08:45 | 30.90122 | 46.21193 | 36520 ft | 405 kts | 283° |
| 2026-05-05 08:45 | 30.91157 | 46.18132 | 36763 ft | 404 kts | 283° |
| 2026-05-05 08:45 | 30.92189 | 46.15088 | 37077 ft | 400 kts | 283° |
| 2026-05-05 08:45 | 30.93195 | 46.12117 | 37383 ft | 397 kts | 283° |
| 2026-05-05 08:46 | 30.94207 | 46.09124 | 37689 ft | 393 kts | 283° |
| 2026-05-05 08:46 | 30.95208 | 46.06157 | 37824 ft | 394 kts | 282° |
| 2026-05-05 08:46 | 30.96201 | 46.03199 | 37829 ft | 396 kts | 282° |
| 2026-05-05 08:47 | 30.98209 | 45.97215 | 37877 ft | 397 kts | 282° |
| 2026-05-05 08:47 | 31.00223 | 45.91219 | 37885 ft | 396 kts | 282° |
| 2026-05-05 08:48 | 31.02219 | 45.85264 | 37892 ft | 395 kts | 282° |
| 2026-05-05 08:48 | 31.04222 | 45.79276 | 37894 ft | 395 kts | 282° |
| 2026-05-05 08:49 | 31.06209 | 45.73325 | 37888 ft | 395 kts | 282° |
| 2026-05-05 08:49 | 31.08194 | 45.67370 | 37893 ft | 395 kts | 282° |
| 2026-05-05 08:50 | 31.10185 | 45.61386 | 37899 ft | 394 kts | 282° |
| 2026-05-05 08:50 | 31.12166 | 45.55423 | 37899 ft | 394 kts | 282° |
| 2026-05-05 08:51 | 31.14146 | 45.49452 | 37897 ft | 394 kts | 282° |
| 2026-05-05 08:51 | 31.16119 | 45.43490 | 37898 ft | 395 kts | 282° |
| 2026-05-05 08:52 | 31.18089 | 45.37526 | 37899 ft | 395 kts | 282° |
| 2026-05-05 08:52 | 31.20060 | 45.31548 | 37899 ft | 395 kts | 282° |
| 2026-05-05 08:53 | 31.22023 | 45.25583 | 37897 ft | 394 kts | 282° |
| 2026-05-05 08:53 | 31.23995 | 45.19577 | 37898 ft | 394 kts | 282° |
| 2026-05-05 08:54 | 31.25955 | 45.13611 | 37899 ft | 394 kts | 282° |
| 2026-05-05 08:54 | 31.27910 | 45.07641 | 37899 ft | 394 kts | 282° |
| 2026-05-05 08:55 | 31.29869 | 45.01648 | 37901 ft | 394 kts | 282° |
| 2026-05-05 08:55 | 31.31815 | 44.95678 | 37899 ft | 394 kts | 282° |
| 2026-05-05 08:56 | 31.33767 | 44.89679 | 37898 ft | 394 kts | 282° |
| 2026-05-05 08:56 | 31.35715 | 44.83684 | 37896 ft | 394 kts | 282° |
| 2026-05-05 08:57 | 31.37654 | 44.77717 | 37898 ft | 394 kts | 282° |
| 2026-05-05 08:57 | 31.39604 | 44.71690 | 37899 ft | 394 kts | 282° |
| 2026-05-05 08:58 | 31.41531 | 44.65725 | 37899 ft | 394 kts | 282° |
| 2026-05-05 08:58 | 31.43470 | 44.59712 | 37889 ft | 394 kts | 282° |
| 2026-05-05 08:59 | 31.45395 | 44.53733 | 37889 ft | 394 kts | 282° |
| 2026-05-05 08:59 | 31.47337 | 44.47689 | 37889 ft | 395 kts | 282° |
| 2026-05-05 09:00 | 31.49261 | 44.41693 | 37891 ft | 394 kts | 282° |
| 2026-05-05 09:00 | 31.51181 | 44.35696 | 37886 ft | 394 kts | 282° |
| 2026-05-05 09:01 | 31.53111 | 44.29657 | 37887 ft | 394 kts | 282° |
| 2026-05-05 09:01 | 31.55029 | 44.23644 | 37888 ft | 394 kts | 282° |
| 2026-05-05 09:02 | 31.56941 | 44.17642 | 37885 ft | 394 kts | 282° |
| 2026-05-05 09:02 | 31.58850 | 44.11633 | 37887 ft | 394 kts | 282° |
| 2026-05-05 09:03 | 31.60764 | 44.05600 | 37892 ft | 393 kts | 282° |
| 2026-05-05 09:03 | 31.62662 | 43.99605 | 37888 ft | 393 kts | 282° |
| 2026-05-05 09:04 | 31.64562 | 43.93593 | 37888 ft | 393 kts | 282° |
| 2026-05-05 09:04 | 31.66467 | 43.87555 | 37888 ft | 393 kts | 282° |
| 2026-05-05 09:05 | 31.68359 | 43.81544 | 37892 ft | 393 kts | 282° |
| 2026-05-05 09:05 | 31.70241 | 43.75554 | 37886 ft | 393 kts | 282° |
| 2026-05-05 09:06 | 31.72134 | 43.69516 | 37891 ft | 392 kts | 282° |
| 2026-05-05 09:06 | 31.74007 | 43.63529 | 37890 ft | 392 kts | 282° |
| 2026-05-05 09:07 | 31.75885 | 43.57520 | 37890 ft | 392 kts | 281° |
| 2026-05-05 09:07 | 31.77764 | 43.51494 | 37899 ft | 391 kts | 281° |
| 2026-05-05 09:08 | 31.79631 | 43.45496 | 37896 ft | 392 kts | 281° |
| 2026-05-05 09:08 | 31.81504 | 43.39465 | 37908 ft | 392 kts | 281° |
| 2026-05-05 09:09 | 31.83370 | 43.33447 | 37909 ft | 392 kts | 281° |
| 2026-05-05 09:09 | 31.85231 | 43.27432 | 37910 ft | 392 kts | 281° |
| 2026-05-05 09:10 | 31.87099 | 43.21376 | 37917 ft | 392 kts | 281° |
| 2026-05-05 09:10 | 31.88949 | 43.15368 | 37916 ft | 392 kts | 281° |
| 2026-05-05 09:11 | 31.90796 | 43.09356 | 37917 ft | 392 kts | 281° |
| 2026-05-05 09:11 | 31.92643 | 43.03337 | 37916 ft | 391 kts | 281° |
| 2026-05-05 09:12 | 31.94498 | 42.97284 | 37917 ft | 391 kts | 281° |
| 2026-05-05 09:12 | 31.96331 | 42.91282 | 37918 ft | 390 kts | 281° |
| 2026-05-05 09:13 | 31.98159 | 42.85282 | 37927 ft | 390 kts | 281° |
| 2026-05-05 09:13 | 31.99985 | 42.79276 | 37927 ft | 391 kts | 281° |
| 2026-05-05 09:14 | 32.01826 | 42.73215 | 37918 ft | 391 kts | 280° |
| 2026-05-05 09:14 | 32.03651 | 42.67199 | 37917 ft | 390 kts | 280° |
| 2026-05-05 09:15 | 32.05467 | 42.61199 | 37917 ft | 390 kts | 280° |
| 2026-05-05 09:15 | 32.07290 | 42.55160 | 37916 ft | 391 kts | 280° |
| 2026-05-05 09:16 | 32.09105 | 42.49138 | 37924 ft | 390 kts | 280° |
| 2026-05-05 09:16 | 32.10923 | 42.43094 | 37928 ft | 390 kts | 280° |
| 2026-05-05 09:17 | 32.12735 | 42.37055 | 37928 ft | 390 kts | 280° |
| 2026-05-05 09:17 | 32.14538 | 42.31035 | 37921 ft | 390 kts | 280° |
| 2026-05-05 09:18 | 32.16339 | 42.25012 | 37930 ft | 389 kts | 280° |
| 2026-05-05 09:18 | 32.18129 | 42.19003 | 37933 ft | 389 kts | 280° |
| 2026-05-05 09:19 | 32.19927 | 42.12955 | 37935 ft | 389 kts | 280° |
| 2026-05-05 09:19 | 32.21718 | 42.06924 | 37936 ft | 389 kts | 280° |
| 2026-05-05 09:20 | 32.23209 | 42.01893 | 37936 ft | 389 kts | 280° |
| 2026-05-05 09:20 | 32.25294 | 41.94850 | 37935 ft | 389 kts | 280° |
| 2026-05-05 09:21 | 32.26778 | 41.89817 | 37937 ft | 389 kts | 280° |
| 2026-05-05 09:21 | 32.28549 | 41.83797 | 37940 ft | 389 kts | 280° |
| 2026-05-05 09:22 | 32.30326 | 41.77760 | 37947 ft | 389 kts | 280° |
| 2026-05-05 09:22 | 32.32097 | 41.71723 | 37949 ft | 389 kts | 280° |
| 2026-05-05 09:23 | 32.33877 | 41.65645 | 37943 ft | 390 kts | 280° |
| 2026-05-05 09:23 | 32.35644 | 41.59605 | 37942 ft | 390 kts | 280° |
| 2026-05-05 09:24 | 32.37291 | 41.53961 | 37953 ft | 390 kts | 280° |
| 2026-05-05 09:24 | 32.39066 | 41.47866 | 37937 ft | 391 kts | 280° |
| 2026-05-05 09:25 | 32.40828 | 41.41804 | 37942 ft | 391 kts | 280° |
| 2026-05-05 09:25 | 32.42590 | 41.35727 | 37948 ft | 391 kts | 280° |
| 2026-05-05 09:26 | 32.44351 | 41.29643 | 37937 ft | 391 kts | 279° |
| 2026-05-05 09:26 | 32.46118 | 41.23522 | 37944 ft | 391 kts | 279° |
| 2026-05-05 09:27 | 32.47874 | 41.17427 | 37949 ft | 391 kts | 279° |
| 2026-05-05 09:27 | 32.49618 | 41.11365 | 37956 ft | 391 kts | 279° |
| 2026-05-05 09:28 | 32.51372 | 41.05250 | 37982 ft | 390 kts | 279° |
| 2026-05-05 09:28 | 32.53117 | 40.99160 | 37984 ft | 391 kts | 279° |
| 2026-05-05 09:29 | 32.54864 | 40.93048 | 37984 ft | 391 kts | 280° |
| 2026-05-05 09:29 | 32.56601 | 40.86955 | 37979 ft | 391 kts | 280° |
| 2026-05-05 09:30 | 32.58331 | 40.80879 | 37993 ft | 390 kts | 279° |
| 2026-05-05 09:30 | 32.60074 | 40.74745 | 37991 ft | 391 kts | 279° |
| 2026-05-05 09:31 | 32.61802 | 40.68645 | 37989 ft | 391 kts | 279° |
| 2026-05-05 09:31 | 32.63527 | 40.62538 | 37992 ft | 391 kts | 279° |
| 2026-05-05 09:32 | 32.65256 | 40.56420 | 37993 ft | 391 kts | 279° |
| 2026-05-05 09:32 | 32.67330 | 40.50401 | 37981 ft | 404 kts | 290° |
| 2026-05-05 09:33 | 32.70404 | 40.44746 | 37989 ft | 408 kts | 292° |
| 2026-05-05 09:33 | 32.73517 | 40.39083 | 37992 ft | 408 kts | 292° |
| 2026-05-05 09:34 | 32.76597 | 40.33433 | 37992 ft | 408 kts | 292° |
| 2026-05-05 09:34 | 32.79667 | 40.27779 | 37994 ft | 408 kts | 292° |
| 2026-05-05 09:35 | 32.82734 | 40.22113 | 37992 ft | 408 kts | 292° |
| 2026-05-05 09:35 | 32.87333 | 40.13597 | 37991 ft | 408 kts | 292° |
| 2026-05-05 09:36 | 32.90400 | 40.07908 | 37997 ft | 408 kts | 292° |
| 2026-05-05 09:36 | 32.93461 | 40.02224 | 38000 ft | 408 kts | 292° |
| 2026-05-05 09:37 | 32.96520 | 39.96533 | 38004 ft | 409 kts | 292° |
| 2026-05-05 09:37 | 32.99585 | 39.90821 | 37997 ft | 409 kts | 292° |
| 2026-05-05 09:38 | 33.02659 | 39.85082 | 38001 ft | 409 kts | 292° |
| 2026-05-05 09:38 | 33.05714 | 39.79374 | 38002 ft | 409 kts | 292° |
| 2026-05-05 09:39 | 33.08775 | 39.73643 | 37999 ft | 410 kts | 292° |
| 2026-05-05 09:39 | 33.11824 | 39.67926 | 38000 ft | 410 kts | 292° |
| 2026-05-05 09:40 | 33.14888 | 39.62171 | 38000 ft | 410 kts | 292° |
| 2026-05-05 09:40 | 33.17935 | 39.56444 | 38002 ft | 410 kts | 292° |
| 2026-05-05 09:41 | 33.21001 | 39.50668 | 37998 ft | 410 kts | 292° |
| 2026-05-05 09:41 | 33.24047 | 39.44921 | 38002 ft | 411 kts | 292° |
| 2026-05-05 09:42 | 33.27085 | 39.39179 | 38000 ft | 411 kts | 292° |
| 2026-05-05 09:42 | 33.30149 | 39.33381 | 38000 ft | 411 kts | 292° |
| 2026-05-05 09:43 | 33.33193 | 39.27611 | 38000 ft | 411 kts | 292° |
| 2026-05-05 09:43 | 33.36259 | 39.21790 | 38000 ft | 412 kts | 292° |
| 2026-05-05 09:44 | 33.39306 | 39.15995 | 38002 ft | 412 kts | 292° |
| 2026-05-05 09:44 | 33.42341 | 39.10213 | 37997 ft | 412 kts | 293° |
| 2026-05-05 09:45 | 33.45393 | 39.04392 | 38002 ft | 412 kts | 293° |
| 2026-05-05 09:45 | 33.48129 | 38.98452 | 38006 ft | 403 kts | 286° |
| 2026-05-05 09:46 | 33.50383 | 38.92321 | 38000 ft | 403 kts | 285° |
| 2026-05-05 09:46 | 33.52625 | 38.86179 | 37998 ft | 404 kts | 285° |
| 2026-05-05 09:47 | 33.54905 | 38.80004 | 38002 ft | 404 kts | 286° |
| 2026-05-05 09:47 | 33.57183 | 38.73863 | 38001 ft | 405 kts | 286° |
| 2026-05-05 09:48 | 33.59469 | 38.67701 | 37999 ft | 405 kts | 286° |
| 2026-05-05 09:48 | 33.61760 | 38.61512 | 37988 ft | 406 kts | 286° |
| 2026-05-05 09:49 | 33.64044 | 38.55327 | 37991 ft | 406 kts | 286° |
| 2026-05-05 09:49 | 33.66344 | 38.49096 | 37993 ft | 407 kts | 286° |
| 2026-05-05 09:50 | 33.68629 | 38.42888 | 37991 ft | 409 kts | 286° |
| 2026-05-05 09:50 | 33.70922 | 38.36649 | 37987 ft | 409 kts | 286° |
| 2026-05-05 09:51 | 33.73221 | 38.30383 | 37989 ft | 410 kts | 286° |
| 2026-05-05 09:51 | 33.75510 | 38.24130 | 37993 ft | 410 kts | 286° |
| 2026-05-05 09:52 | 33.77811 | 38.17833 | 37990 ft | 410 kts | 286° |
| 2026-05-05 09:52 | 33.80108 | 38.11535 | 37989 ft | 411 kts | 286° |
| 2026-05-05 09:53 | 33.82385 | 38.05267 | 37995 ft | 411 kts | 286° |
| 2026-05-05 09:53 | 33.84671 | 37.98981 | 37991 ft | 411 kts | 286° |
| 2026-05-05 09:54 | 33.86978 | 37.92650 | 37991 ft | 413 kts | 288° |
| 2026-05-05 09:54 | 33.89932 | 37.86664 | 37993 ft | 420 kts | 294° |
| 2026-05-05 09:55 | 33.93097 | 37.80702 | 37992 ft | 421 kts | 294° |
| 2026-05-05 09:55 | 33.96220 | 37.74766 | 37989 ft | 420 kts | 294° |
| 2026-05-05 09:56 | 33.99328 | 37.68817 | 37997 ft | 420 kts | 294° |
| 2026-05-05 09:56 | 34.02441 | 37.62839 | 37981 ft | 420 kts | 294° |
| 2026-05-05 09:57 | 34.05530 | 37.56896 | 37992 ft | 419 kts | 294° |
| 2026-05-05 09:57 | 34.08625 | 37.50932 | 37991 ft | 418 kts | 294° |
| 2026-05-05 09:58 | 34.11697 | 37.45002 | 38001 ft | 418 kts | 294° |
| 2026-05-05 09:58 | 34.14793 | 37.39014 | 37993 ft | 418 kts | 294° |
| 2026-05-05 09:59 | 34.17861 | 37.33076 | 37989 ft | 418 kts | 294° |
| 2026-05-05 09:59 | 34.20550 | 37.26914 | 37991 ft | 407 kts | 283° |
| 2026-05-05 10:00 | 34.21841 | 37.20394 | 37984 ft | 397 kts | 271° |
| 2026-05-05 10:00 | 34.22348 | 37.13731 | 37991 ft | 397 kts | 270° |
| 2026-05-05 10:01 | 34.22846 | 37.07156 | 37961 ft | 385 kts | 270° |
| 2026-05-05 10:01 | 34.23096 | 37.03973 | 37818 ft | 374 kts | 271° |
| 2026-05-05 10:01 | 34.23341 | 37.00827 | 37106 ft | 377 kts | 270° |
| 2026-05-05 10:02 | 34.23583 | 36.97694 | 36474 ft | 378 kts | 270° |
| 2026-05-05 10:02 | 34.23829 | 36.94541 | 36067 ft | 374 kts | 270° |
| 2026-05-05 10:02 | 34.24074 | 36.91409 | 35639 ft | 370 kts | 270° |
| 2026-05-05 10:02 | 34.24313 | 36.88328 | 35095 ft | 370 kts | 270° |
| 2026-05-05 10:03 | 34.24549 | 36.85274 | 34470 ft | 365 kts | 270° |
| 2026-05-05 10:03 | 34.24785 | 36.82234 | 33823 ft | 360 kts | 270° |
| 2026-05-05 10:03 | 34.25017 | 36.79224 | 33175 ft | 355 kts | 270° |
| 2026-05-05 10:03 | 34.25244 | 36.76260 | 32519 ft | 351 kts | 270° |
| 2026-05-05 10:04 | 34.25465 | 36.73363 | 31858 ft | 348 kts | 270° |
| 2026-05-05 10:04 | 34.25686 | 36.70448 | 31096 ft | 347 kts | 270° |
| 2026-05-05 10:04 | 34.25907 | 36.67487 | 29708 ft | 360 kts | 270° |
| 2026-05-05 10:04 | 34.26137 | 36.64412 | 28290 ft | 372 kts | 270° |
| 2026-05-05 10:05 | 34.26375 | 36.61249 | 26877 ft | 381 kts | 271° |
| 2026-05-05 10:05 | 34.26616 | 36.58071 | 25585 ft | 386 kts | 271° |
| 2026-05-05 10:05 | 34.26803 | 36.54833 | 24597 ft | 382 kts | 269° |
| 2026-05-05 10:05 | 34.26924 | 36.51633 | 23953 ft | 380 kts | 269° |
| 2026-05-05 10:06 | 34.27026 | 36.48434 | 23271 ft | 378 kts | 269° |
| 2026-05-05 10:06 | 34.27125 | 36.45284 | 22627 ft | 383 kts | 269° |
| 2026-05-05 10:06 | 34.27231 | 36.41982 | 21901 ft | 397 kts | 270° |
| 2026-05-05 10:06 | 34.27344 | 36.38658 | 21174 ft | 399 kts | 270° |
| 2026-05-05 10:07 | 34.27464 | 36.35307 | 20466 ft | 395 kts | 270° |
| 2026-05-05 10:07 | 34.27584 | 36.31997 | 19742 ft | 392 kts | 270° |
| 2026-05-05 10:07 | 34.27703 | 36.28748 | 19048 ft | 388 kts | 270° |
| 2026-05-05 10:07 | 34.27818 | 36.25484 | 18354 ft | 384 kts | 270° |
| 2026-05-05 10:08 | 34.27894 | 36.23355 | 17892 ft | 382 kts | 270° |
| 2026-05-05 10:08 | 34.28008 | 36.20150 | 17200 ft | 379 kts | 270° |
| 2026-05-05 10:08 | 34.28157 | 36.15933 | 16294 ft | 376 kts | 271° |
| 2026-05-05 10:08 | 34.28230 | 36.13849 | 15845 ft | 373 kts | 271° |
| 2026-05-05 10:09 | 34.28338 | 36.10719 | 15181 ft | 370 kts | 271° |
| 2026-05-05 10:09 | 34.28446 | 36.07682 | 14523 ft | 368 kts | 271° |
| 2026-05-05 10:09 | 34.28550 | 36.04615 | 13874 ft | 365 kts | 271° |
| 2026-05-05 10:09 | 34.28654 | 36.01549 | 13241 ft | 363 kts | 271° |
| 2026-05-05 10:10 | 34.28764 | 35.98514 | 12837 ft | 356 kts | 271° |
| 2026-05-05 10:10 | 34.28899 | 35.95537 | 12510 ft | 352 kts | 271° |
| 2026-05-05 10:10 | 34.29036 | 35.92585 | 12228 ft | 359 kts | 271° |
| 2026-05-05 10:10 | 34.29170 | 35.89591 | 11910 ft | 351 kts | 272° |
| 2026-05-05 10:11 | 34.29310 | 35.86684 | 11580 ft | 340 kts | 271° |
| 2026-05-05 10:11 | 34.29441 | 35.83867 | 11328 ft | 330 kts | 271° |
| 2026-05-05 10:11 | 34.29563 | 35.81125 | 11040 ft | 322 kts | 271° |
| 2026-05-05 10:11 | 34.29682 | 35.78454 | 10783 ft | 313 kts | 271° |
| 2026-05-05 10:12 | 34.29795 | 35.75877 | 10538 ft | 306 kts | 271° |
| 2026-05-05 10:12 | 34.29907 | 35.73328 | 10290 ft | 299 kts | 271° |
| 2026-05-05 10:12 | 34.29835 | 35.70851 | 10068 ft | 289 kts | 254° |
| 2026-05-05 10:12 | 34.29105 | 35.68688 | 10018 ft | 275 kts | 240° |
| 2026-05-05 10:13 | 34.28001 | 35.66867 | 10008 ft | 262 kts | 231° |
| 2026-05-05 10:13 | 34.26847 | 35.65205 | 9914 ft | 252 kts | 231° |
| 2026-05-05 10:13 | 34.25730 | 35.63608 | 9570 ft | 253 kts | 231° |
| 2026-05-05 10:13 | 34.24593 | 35.61977 | 9239 ft | 252 kts | 231° |
| 2026-05-05 10:14 | 34.23465 | 35.60352 | 8980 ft | 251 kts | 231° |
| 2026-05-05 10:14 | 34.22352 | 35.58742 | 8708 ft | 248 kts | 231° |
| 2026-05-05 10:14 | 34.21244 | 35.57136 | 8404 ft | 248 kts | 231° |
| 2026-05-05 10:14 | 34.20157 | 35.55556 | 8118 ft | 246 kts | 231° |
| 2026-05-05 10:15 | 34.19070 | 35.53975 | 7800 ft | 246 kts | 231° |
| 2026-05-05 10:15 | 34.17980 | 35.52390 | 7523 ft | 244 kts | 231° |
| 2026-05-05 10:15 | 34.16891 | 35.50808 | 7216 ft | 243 kts | 231° |
| 2026-05-05 10:15 | 34.15822 | 35.49253 | 6927 ft | 242 kts | 231° |
| 2026-05-05 10:16 | 34.14702 | 35.47741 | 6359 ft | 243 kts | 219° |
| 2026-05-05 10:16 | 34.13102 | 35.47012 | 5826 ft | 250 kts | 190° |
| 2026-05-05 10:16 | 34.11391 | 35.46915 | 5447 ft | 247 kts | 182° |
| 2026-05-05 10:16 | 34.09696 | 35.47034 | 5122 ft | 241 kts | 180° |
| 2026-05-05 10:17 | 34.08040 | 35.47160 | 4813 ft | 239 kts | 181° |
| 2026-05-05 10:17 | 34.06364 | 35.47266 | 4492 ft | 241 kts | 181° |
| 2026-05-05 10:17 | 34.04700 | 35.47370 | 4168 ft | 242 kts | 181° |
| 2026-05-05 10:17 | 34.03013 | 35.47476 | 3840 ft | 243 kts | 181° |
| 2026-05-05 10:18 | 34.01313 | 35.47586 | 3522 ft | 243 kts | 180° |
| 2026-05-05 10:18 | 33.99638 | 35.47692 | 3197 ft | 242 kts | 181° |
| 2026-05-05 10:18 | 33.97948 | 35.47799 | 2868 ft | 240 kts | 180° |
| 2026-05-05 10:18 | 33.96312 | 35.47904 | 2554 ft | 229 kts | 180° |
| 2026-05-05 10:19 | 33.94749 | 35.48004 | 2257 ft | 220 kts | 181° |
| 2026-05-05 10:19 | 33.93265 | 35.48097 | 1974 ft | 211 kts | 181° |
| 2026-05-05 10:19 | 33.91824 | 35.48189 | 1697 ft | 203 kts | 181° |
| 2026-05-05 10:19 | 33.90450 | 35.48277 | 1436 ft | 195 kts | 181° |
| 2026-05-05 10:20 | 33.89129 | 35.48364 | 1197 ft | 188 kts | 181° |
| 2026-05-05 10:20 | 33.87848 | 35.48441 | 966 ft | 182 kts | 181° |
| 2026-05-05 10:20 | 33.86614 | 35.48521 | 720 ft | 176 kts | 181° |
| 2026-05-05 10:20 | 33.85414 | 35.48602 | 473 ft | 170 kts | 181° |
| 2026-05-05 10:21 | 33.84269 | 35.48674 | 190 ft | 160 kts | 180° |
| 2026-05-05 10:21 | 33.83226 | 35.48743 | 31 ft | 137 kts | 180° |
| 2026-05-05 10:21 | 33.82377 | 35.48797 | 6 ft | 107 kts | 180° |
| 2026-05-05 10:21 | 33.81948 | 35.48819 | 9 ft | 45 kts | 178° |
| 2026-05-05 10:22 | 33.81798 | 35.48831 | 10 ft | 14 kts | 177° |
| 2026-05-05 10:22 | 33.81724 | 35.48888 | 11 ft | 14 kts | 109° |
| 2026-05-05 10:22 | 33.81716 | 35.48995 | 13 ft | 13 kts | 68° |
| 2026-05-05 10:22 | 33.81775 | 35.49060 | 14 ft | 13 kts | 37° |
| 2026-05-05 10:23 | 33.81811 | 35.49093 | 15 ft | 13 kts | 37° |
| 2026-05-05 10:23 | 33.81871 | 35.49142 | 14 ft | 12 kts | 34° |
| 2026-05-05 10:24 | 33.81939 | 35.49198 | 14 ft | 12 kts | 34° |
| 2026-05-05 10:24 | 33.82006 | 35.49257 | 16 ft | 12 kts | 36° |
| 2026-05-05 10:24 | 33.82072 | 35.49313 | 14 ft | 11 kts | 35° |
| 2026-05-05 10:25 | 33.82138 | 35.49359 | 14 ft | 11 kts | 5° |
| 2026-05-05 10:25 | 33.82214 | 35.49357 | 14 ft | 11 kts | 13° |
| 2026-05-05 10:25 | 33.82250 | 35.49370 | 14 ft | 1 kts | 15° |
| 2026-05-05 10:25 | 33.82256 | 35.49372 | 14 ft | 1 kts | 15° |
| 2026-05-05 10:26 | 33.82259 | 35.49373 | 14 ft | 0 kts | 15° |